createdAt,value
2023-02-19T00:00:34.266Z,11.1
2023-02-19T00:01:34.211Z,11.01
2023-02-19T00:02:33.987Z,11.05
2023-02-19T00:03:34.164Z,10.92
2023-02-19T00:04:37.057Z,10.89
2023-02-19T00:05:33.981Z,10.89
2023-02-19T00:06:33.952Z,10.94
2023-02-19T00:07:34.009Z,10.95
2023-02-19T00:08:34.007Z,10.92
2023-02-19T00:09:37.066Z,10.86
2023-02-19T00:10:33.997Z,10.79
2023-02-19T00:11:33.998Z,10.77
2023-02-19T00:12:33.989Z,10.82
2023-02-19T00:13:33.833Z,10.87
2023-02-19T00:14:34.002Z,10.82
2023-02-19T00:15:37.222Z,10.83
2023-02-19T00:16:33.980Z,10.83
2023-02-19T00:17:33.984Z,10.79
2023-02-19T00:18:34.062Z,10.65
2023-02-19T00:19:34.014Z,10.82
2023-02-19T00:20:37.102Z,10.83
2023-02-19T00:21:34.002Z,10.82
2023-02-19T00:22:33.897Z,10.72
2023-02-19T00:23:34.006Z,10.76
2023-02-19T00:24:33.997Z,10.75
2023-02-19T00:25:34.032Z,10.64
2023-02-19T00:26:34.033Z,10.77
2023-02-19T00:27:33.998Z,10.79
2023-02-19T00:28:34.023Z,10.8
2023-02-19T00:29:33.989Z,10.75
2023-02-19T00:30:34.216Z,10.69
2023-02-19T00:31:37.440Z,10.76
2023-02-19T00:32:33.996Z,10.61
2023-02-19T00:33:34.046Z,10.65
2023-02-19T00:34:34.060Z,10.55
2023-02-19T00:35:34.048Z,10.65
2023-02-19T00:36:34.114Z,10.58
2023-02-19T00:37:34.032Z,10.55
2023-02-19T00:38:34.042Z,10.64
2023-02-19T00:39:34.037Z,10.51
2023-02-19T00:40:34.079Z,10.57
2023-02-19T00:41:34.028Z,10.57
2023-02-19T00:42:37.094Z,10.61
2023-02-19T00:43:34.060Z,10.65
2023-02-19T00:44:34.031Z,10.58
2023-02-19T00:45:34.065Z,10.48
2023-02-19T00:46:34.294Z,10.48
2023-02-19T00:47:34.039Z,10.49
2023-02-19T00:48:34.073Z,10.41
2023-02-19T00:49:34.052Z,10.43
2023-02-19T00:50:34.106Z,10.57
2023-02-19T00:51:34.183Z,10.49
2023-02-19T00:52:34.074Z,10.39
2023-02-19T00:53:37.174Z,10.42
2023-02-19T00:54:34.033Z,10.38
2023-02-19T00:55:34.076Z,10.31
2023-02-19T00:56:34.052Z,10.3
2023-02-19T00:57:34.045Z,10.21
2023-02-19T00:58:34.088Z,10.3
2023-02-19T00:59:34.082Z,10.38
2023-02-19T01:00:34.104Z,10.34
2023-02-19T01:01:34.221Z,10.34
2023-02-19T01:02:34.075Z,10.28
2023-02-19T01:03:34.074Z,10.41
2023-02-19T01:04:37.463Z,10.39
2023-02-19T01:05:34.067Z,10.31
2023-02-19T01:06:34.085Z,10.33
2023-02-19T01:07:34.163Z,10.43
2023-02-19T01:08:34.093Z,10.42
2023-02-19T01:09:34.142Z,10.36
2023-02-19T01:10:34.056Z,10.34
2023-02-19T01:11:34.081Z,10.33
2023-02-19T01:12:34.095Z,10.23
2023-02-19T01:13:34.186Z,10.27
2023-02-19T01:14:34.090Z,10.25
2023-02-19T01:15:37.137Z,10.3
2023-02-19T01:16:34.108Z,10.28
2023-02-19T01:17:34.087Z,10.34
2023-02-19T01:18:34.093Z,10.25
2023-02-19T01:19:34.131Z,10.27
2023-02-19T01:20:34.068Z,10.24
2023-02-19T01:21:34.085Z,10.2
2023-02-19T01:22:34.115Z,10.23
2023-02-19T01:23:34.127Z,10.13
2023-02-19T01:24:34.158Z,10.24
2023-02-19T01:25:34.234Z,10.24
2023-02-19T01:26:34.102Z,10.27
2023-02-19T01:27:34.111Z,10.2
2023-02-19T01:28:34.117Z,10.17
2023-02-19T01:29:34.118Z,10.25
2023-02-19T01:30:34.451Z,10.09
2023-02-19T01:31:34.721Z,10.13
2023-02-19T01:32:34.112Z,10.18
2023-02-19T01:33:34.112Z,10.12
2023-02-19T01:34:34.180Z,10.13
2023-02-19T01:35:34.100Z,10.13
2023-02-19T01:36:34.136Z,10.18
2023-02-19T01:37:34.176Z,10.12
2023-02-19T01:38:34.141Z,10.18
2023-02-19T01:39:34.144Z,10.1
2023-02-19T01:40:34.143Z,10.07
2023-02-19T01:41:34.116Z,10.13
2023-02-19T01:42:34.116Z,10.21
2023-02-19T01:43:34.138Z,10.07
2023-02-19T01:44:34.156Z,10.15
2023-02-19T01:45:34.184Z,10.17
2023-02-19T01:46:34.326Z,10.02
2023-02-19T01:47:34.144Z,10
2023-02-19T01:48:34.112Z,10.03
2023-02-19T01:49:34.151Z,10.05
2023-02-19T01:50:34.144Z,10.09
2023-02-19T01:51:34.157Z,10.17
2023-02-19T01:52:34.128Z,10.09
2023-02-19T01:53:34.177Z,10.18
2023-02-19T01:54:34.182Z,10.12
2023-02-19T01:55:34.175Z,10.02
2023-02-19T01:56:34.180Z,10.12
2023-02-19T01:57:34.134Z,10.12
2023-02-19T01:58:37.130Z,10.02
2023-02-19T01:59:34.217Z,9.99
2023-02-19T02:00:34.267Z,10.07
2023-02-19T02:01:34.168Z,10.06
2023-02-19T02:02:34.229Z,9.97
2023-02-19T02:03:34.184Z,10.05
2023-02-19T02:04:34.193Z,10.06
2023-02-19T02:05:34.164Z,10.09
2023-02-19T02:06:34.172Z,10.05
2023-02-19T02:07:34.197Z,10
2023-02-19T02:08:34.159Z,10.12
2023-02-19T02:09:37.010Z,10.07
2023-02-19T02:10:34.277Z,10
2023-02-19T02:11:34.204Z,9.99
2023-02-19T02:12:34.203Z,9.99
2023-02-19T02:13:34.249Z,9.97
2023-02-19T02:14:35.377Z,10.02
2023-02-19T02:15:34.198Z,9.95
2023-02-19T02:16:34.382Z,9.97
2023-02-19T02:17:34.190Z,10.03
2023-02-19T02:18:34.220Z,9.99
2023-02-19T02:19:34.211Z,10.03
2023-02-19T02:20:37.297Z,9.88
2023-02-19T02:21:34.198Z,10.1
2023-02-19T02:22:34.224Z,10.03
2023-02-19T02:23:34.217Z,10.09
2023-02-19T02:24:35.261Z,10
2023-02-19T02:25:37.421Z,10.07
2023-02-19T02:26:34.236Z,10.03
2023-02-19T02:27:34.295Z,10.12
2023-02-19T02:28:34.298Z,10.1
2023-02-19T02:29:34.255Z,10.02
2023-02-19T02:30:37.791Z,9.92
2023-02-19T02:31:37.336Z,9.92
2023-02-19T02:32:34.216Z,10.02
2023-02-19T02:33:34.241Z,10
2023-02-19T02:34:34.250Z,10.02
2023-02-19T02:35:34.192Z,10.02
2023-02-19T02:36:37.124Z,10.05
2023-02-19T02:37:34.229Z,9.97
2023-02-19T02:38:34.259Z,9.99
2023-02-19T02:39:34.244Z,10.03
2023-02-19T02:40:34.222Z,10.07
2023-02-19T02:41:34.220Z,10.05
2023-02-19T02:42:34.235Z,10.07
2023-02-19T02:43:34.268Z,10.03
2023-02-19T02:44:34.258Z,10.05
2023-02-19T02:45:34.333Z,9.99
2023-02-19T02:46:34.236Z,10.05
2023-02-19T02:47:37.245Z,9.95
2023-02-19T02:48:34.256Z,9.94
2023-02-19T02:49:34.254Z,9.99
2023-02-19T02:50:34.225Z,10.12
2023-02-19T02:51:34.255Z,9.99
2023-02-19T02:52:34.236Z,10.13
2023-02-19T02:53:34.232Z,10.18
2023-02-19T02:54:34.296Z,10.06
2023-02-19T02:55:34.280Z,10.03
2023-02-19T02:56:34.227Z,10.07
2023-02-19T02:57:34.241Z,10.1
2023-02-19T02:58:38.818Z,9.94
2023-02-19T02:59:34.274Z,10.03
2023-02-19T03:00:34.249Z,10.17
2023-02-19T03:01:34.261Z,10.06
2023-02-19T03:02:34.586Z,10.12
2023-02-19T03:03:34.345Z,10.07
2023-02-19T03:04:34.276Z,10.15
2023-02-19T03:05:34.314Z,9.97
2023-02-19T03:06:34.273Z,10.02
2023-02-19T03:07:34.252Z,10.1
2023-02-19T03:08:34.282Z,10.12
2023-02-19T03:09:39.564Z,10.06
2023-02-19T03:10:34.285Z,10.17
2023-02-19T03:11:34.260Z,10.1
2023-02-19T03:12:34.283Z,10.06
2023-02-19T03:13:34.261Z,10.09
2023-02-19T03:14:34.364Z,10.02
2023-02-19T03:15:34.251Z,10.17
2023-02-19T03:16:34.442Z,10.15
2023-02-19T03:17:34.262Z,10.2
2023-02-19T03:18:34.271Z,10.05
2023-02-19T03:19:34.274Z,10.15
2023-02-19T03:20:37.399Z,10.2
2023-02-19T03:21:34.283Z,10.2
2023-02-19T03:22:34.286Z,10.2
2023-02-19T03:23:34.302Z,10.17
2023-02-19T03:24:34.280Z,10.21
2023-02-19T03:25:34.311Z,10.07
2023-02-19T03:26:34.267Z,10.15
2023-02-19T03:27:34.291Z,10.17
2023-02-19T03:28:34.275Z,10.15
2023-02-19T03:29:34.290Z,10.2
2023-02-19T03:30:34.503Z,10.23
2023-02-19T03:31:37.639Z,10.17
2023-02-19T03:32:34.321Z,10.24
2023-02-19T03:33:34.303Z,10.18
2023-02-19T03:34:34.323Z,10.24
2023-02-19T03:35:34.326Z,10.18
2023-02-19T03:36:34.465Z,10.25
2023-02-19T03:37:34.312Z,10.21
2023-02-19T03:38:34.335Z,10.3
2023-02-19T03:39:34.304Z,10.24
2023-02-19T03:40:34.346Z,10.33
2023-02-19T03:41:34.298Z,10.28
2023-02-19T03:42:37.352Z,10.3
2023-02-19T03:43:34.736Z,10.3
2023-02-19T03:44:34.383Z,10.18
2023-02-19T03:45:34.427Z,10.09
2023-02-19T03:46:34.303Z,10.23
2023-02-19T03:47:34.425Z,10.21
2023-02-19T03:48:34.330Z,10.13
2023-02-19T03:49:34.322Z,10.15
2023-02-19T03:50:34.358Z,10.12
2023-02-19T03:51:34.358Z,10.13
2023-02-19T03:52:34.331Z,10.24
2023-02-19T03:53:34.384Z,10.12
2023-02-19T03:54:34.318Z,10.21
2023-02-19T03:55:34.349Z,10.13
2023-02-19T03:56:34.352Z,10.21
2023-02-19T03:57:34.353Z,10.15
2023-02-19T03:58:34.360Z,10.15
2023-02-19T03:59:34.565Z,10.21
2023-02-19T04:00:34.361Z,10.15
2023-02-19T04:01:34.321Z,10.18
2023-02-19T04:02:34.649Z,10.25
2023-02-19T04:03:34.367Z,10.25
2023-02-19T04:04:34.723Z,10.23
2023-02-19T04:05:34.377Z,10.2
2023-02-19T04:06:34.371Z,10.18
2023-02-19T04:07:34.622Z,10.24
2023-02-19T04:08:34.361Z,10.18
2023-02-19T04:09:40.175Z,10.21
2023-02-19T04:10:34.472Z,10.25
2023-02-19T04:11:34.373Z,10.18
2023-02-19T04:12:34.387Z,10.21
2023-02-19T04:13:34.387Z,10.2
2023-02-19T04:14:34.365Z,10.2
2023-02-19T04:15:34.417Z,10.28
2023-02-19T04:16:34.515Z,10.21
2023-02-19T04:17:34.389Z,10.17
2023-02-19T04:18:34.405Z,10.21
2023-02-19T04:19:34.375Z,10.21
2023-02-19T04:20:34.410Z,10.28
2023-02-19T04:21:34.395Z,10.13
2023-02-19T04:22:34.381Z,10.28
2023-02-19T04:23:34.403Z,10.23
2023-02-19T04:24:34.396Z,10.15
2023-02-19T04:25:37.345Z,10.1
2023-02-19T04:26:34.455Z,10.15
2023-02-19T04:27:34.393Z,10.24
2023-02-19T04:28:34.386Z,10.3
2023-02-19T04:29:34.393Z,10.24
2023-02-19T04:30:34.726Z,10.18
2023-02-19T04:31:34.835Z,10.3
2023-02-19T04:32:34.389Z,10.3
2023-02-19T04:33:34.390Z,10.21
2023-02-19T04:34:34.381Z,10.28
2023-02-19T04:35:34.417Z,10.13
2023-02-19T04:36:35.463Z,10.21
2023-02-19T04:37:34.397Z,10.23
2023-02-19T04:38:34.427Z,10.31
2023-02-19T04:39:34.420Z,10.3
2023-02-19T04:40:34.413Z,10.18
2023-02-19T04:41:34.648Z,10.24
2023-02-19T04:42:34.406Z,10.27
2023-02-19T04:43:34.431Z,10.2
2023-02-19T04:44:34.408Z,10.09
2023-02-19T04:45:34.452Z,10.3
2023-02-19T04:46:34.497Z,10.15
2023-02-19T04:47:37.163Z,10.27
2023-02-19T04:48:34.417Z,10.13
2023-02-19T04:49:34.404Z,10.21
2023-02-19T04:50:34.436Z,10.3
2023-02-19T04:51:34.432Z,10.28
2023-02-19T04:52:37.186Z,10.3
2023-02-19T04:53:34.415Z,10.21
2023-02-19T04:54:34.434Z,10.24
2023-02-19T04:55:34.453Z,10.27
2023-02-19T04:56:34.426Z,10.2
2023-02-19T04:57:34.456Z,10.24
2023-02-19T04:58:37.489Z,10.21
2023-02-19T04:59:34.450Z,10.25
2023-02-19T05:00:34.459Z,10.24
2023-02-19T05:01:34.594Z,10.21
2023-02-19T05:02:34.422Z,10.25
2023-02-19T05:03:37.441Z,10.27
2023-02-19T05:04:34.619Z,10.25
2023-02-19T05:05:34.478Z,10.3
2023-02-19T05:06:34.451Z,10.21
2023-02-19T05:07:34.468Z,10.3
2023-02-19T05:08:34.440Z,10.25
2023-02-19T05:09:34.442Z,10.33
2023-02-19T05:10:34.482Z,10.25
2023-02-19T05:11:34.424Z,10.25
2023-02-19T05:12:34.448Z,10.31
2023-02-19T05:13:34.563Z,10.15
2023-02-19T05:14:37.318Z,10.27
2023-02-19T05:15:34.661Z,10.25
2023-02-19T05:16:34.463Z,10.1
2023-02-19T05:17:34.452Z,10.12
2023-02-19T05:18:34.469Z,10.25
2023-02-19T05:19:34.450Z,10.3
2023-02-19T05:20:34.501Z,10.21
2023-02-19T05:21:34.468Z,10.21
2023-02-19T05:22:34.489Z,10.3
2023-02-19T05:23:34.502Z,10.3
2023-02-19T05:24:34.498Z,10.3
2023-02-19T05:25:37.593Z,10.3
2023-02-19T05:26:34.469Z,10.24
2023-02-19T05:27:34.500Z,10.31
2023-02-19T05:28:34.473Z,10.27
2023-02-19T05:29:34.527Z,10.27
2023-02-19T05:30:34.828Z,10.27
2023-02-19T05:31:34.836Z,10.27
2023-02-19T05:32:34.483Z,10.38
2023-02-19T05:33:34.518Z,10.24
2023-02-19T05:34:34.509Z,10.18
2023-02-19T05:35:34.487Z,10.41
2023-02-19T05:36:37.253Z,10.3
2023-02-19T05:37:34.487Z,10.27
2023-02-19T05:38:34.507Z,10.27
2023-02-19T05:39:34.487Z,10.42
2023-02-19T05:40:34.493Z,10.31
2023-02-19T05:41:34.498Z,10.25
2023-02-19T05:42:34.564Z,10.31
2023-02-19T05:43:34.781Z,10.31
2023-02-19T05:44:34.541Z,10.27
2023-02-19T05:45:34.488Z,10.33
2023-02-19T05:46:34.999Z,10.17
2023-02-19T05:47:37.332Z,10.28
2023-02-19T05:48:34.503Z,10.27
2023-02-19T05:49:34.512Z,10.33
2023-02-19T05:50:34.530Z,10.24
2023-02-19T05:51:34.524Z,10.24
2023-02-19T05:52:34.514Z,10.28
2023-02-19T05:53:34.571Z,10.33
2023-02-19T05:54:34.515Z,10.33
2023-02-19T05:55:34.495Z,10.36
2023-02-19T05:56:34.757Z,10.3
2023-02-19T05:57:34.680Z,10.27
2023-02-19T05:58:37.335Z,10.38
2023-02-19T05:59:34.558Z,10.31
2023-02-19T06:00:34.530Z,10.31
2023-02-19T06:01:34.586Z,10.28
2023-02-19T06:02:34.698Z,10.21
2023-02-19T06:03:35.752Z,10.34
2023-02-19T06:04:34.536Z,10.38
2023-02-19T06:05:34.530Z,10.31
2023-02-19T06:06:34.561Z,10.34
2023-02-19T06:07:34.520Z,10.33
2023-02-19T06:08:34.846Z,10.25
2023-02-19T06:09:37.584Z,10.42
2023-02-19T06:10:34.527Z,10.27
2023-02-19T06:11:34.569Z,10.3
2023-02-19T06:12:34.536Z,10.33
2023-02-19T06:13:34.561Z,10.27
2023-02-19T06:14:34.538Z,10.21
2023-02-19T06:15:34.537Z,10.27
2023-02-19T06:16:34.586Z,10.17
2023-02-19T06:17:34.559Z,10.27
2023-02-19T06:18:34.564Z,10.25
2023-02-19T06:19:34.572Z,10.18
2023-02-19T06:20:34.554Z,10.17
2023-02-19T06:21:34.625Z,10.23
2023-02-19T06:22:34.568Z,10.23
2023-02-19T06:23:34.552Z,10.28
2023-02-19T06:24:34.567Z,10.25
2023-02-19T06:25:34.553Z,10.28
2023-02-19T06:26:34.611Z,10.27
2023-02-19T06:27:34.577Z,10.3
2023-02-19T06:28:34.580Z,10.31
2023-02-19T06:29:34.577Z,10.18
2023-02-19T06:30:34.791Z,10.18
2023-02-19T06:31:35.090Z,10.23
2023-02-19T06:32:34.720Z,10.21
2023-02-19T06:33:35.504Z,10.24
2023-02-19T06:34:34.622Z,10.39
2023-02-19T06:35:34.614Z,10.39
2023-02-19T06:36:34.636Z,10.28
2023-02-19T06:37:34.601Z,10.23
2023-02-19T06:38:34.573Z,10.33
2023-02-19T06:39:34.629Z,10.36
2023-02-19T06:40:34.575Z,10.36
2023-02-19T06:41:34.610Z,10.31
2023-02-19T06:42:34.596Z,10.38
2023-02-19T06:43:34.653Z,10.34
2023-02-19T06:44:34.613Z,10.39
2023-02-19T06:45:34.602Z,10.39
2023-02-19T06:46:34.838Z,10.31
2023-02-19T06:47:34.611Z,10.38
2023-02-19T06:48:34.640Z,10.3
2023-02-19T06:49:34.640Z,10.34
2023-02-19T06:50:34.610Z,10.33
2023-02-19T06:51:34.637Z,10.28
2023-02-19T06:52:37.616Z,10.34
2023-02-19T06:53:34.617Z,10.33
2023-02-19T06:54:34.657Z,10.38
2023-02-19T06:55:34.638Z,10.34
2023-02-19T06:56:34.670Z,10.28
2023-02-19T06:57:34.745Z,10.31
2023-02-19T06:58:34.690Z,10.27
2023-02-19T06:59:34.648Z,10.38
2023-02-19T07:00:34.815Z,10.25
2023-02-19T07:01:34.695Z,10.34
2023-02-19T07:02:34.642Z,10.3
2023-02-19T07:03:37.579Z,10.41
2023-02-19T07:04:34.708Z,10.31
2023-02-19T07:05:34.664Z,10.38
2023-02-19T07:06:34.659Z,10.28
2023-02-19T07:07:34.766Z,10.28
2023-02-19T07:08:34.687Z,10.39
2023-02-19T07:09:34.645Z,10.49
2023-02-19T07:10:34.666Z,10.39
2023-02-19T07:11:34.671Z,10.49
2023-02-19T07:12:34.647Z,10.36
2023-02-19T07:13:35.966Z,10.39
2023-02-19T07:14:37.419Z,10.42
2023-02-19T07:15:34.638Z,10.42
2023-02-19T07:16:34.905Z,10.45
2023-02-19T07:17:34.687Z,10.48
2023-02-19T07:18:34.648Z,10.36
2023-02-19T07:19:37.706Z,10.36
2023-02-19T07:20:34.773Z,10.46
2023-02-19T07:21:34.739Z,10.46
2023-02-19T07:22:34.688Z,10.46
2023-02-19T07:23:34.534Z,10.48
2023-02-19T07:24:34.663Z,10.48
2023-02-19T07:25:37.749Z,10.57
2023-02-19T07:26:34.675Z,10.46
2023-02-19T07:27:34.714Z,10.53
2023-02-19T07:28:34.651Z,10.49
2023-02-19T07:29:34.656Z,10.61
2023-02-19T07:30:38.130Z,10.59
2023-02-19T07:31:35.122Z,10.55
2023-02-19T07:32:34.698Z,10.49
2023-02-19T07:33:34.682Z,10.49
2023-02-19T07:34:34.514Z,10.57
2023-02-19T07:35:34.685Z,10.59
2023-02-19T07:36:37.501Z,10.62
2023-02-19T07:37:34.678Z,10.62
2023-02-19T07:38:34.666Z,10.51
2023-02-19T07:39:34.520Z,10.46
2023-02-19T07:40:34.694Z,10.64
2023-02-19T07:41:36.571Z,10.62
2023-02-19T07:42:34.692Z,10.68
2023-02-19T07:43:34.682Z,10.68
2023-02-19T07:44:34.695Z,10.58
2023-02-19T07:45:34.789Z,10.55
2023-02-19T07:46:34.716Z,10.57
2023-02-19T07:47:34.693Z,10.58
2023-02-19T07:48:34.714Z,10.59
2023-02-19T07:49:34.688Z,10.57
2023-02-19T07:50:34.717Z,10.61
2023-02-19T07:51:34.735Z,10.64
2023-02-19T07:52:37.493Z,10.69
2023-02-19T07:53:34.703Z,10.65
2023-02-19T07:54:34.725Z,10.62
2023-02-19T07:55:34.719Z,10.59
2023-02-19T07:56:34.750Z,10.68
2023-02-19T07:57:34.714Z,10.67
2023-02-19T07:58:34.732Z,10.67
2023-02-19T07:59:34.733Z,10.64
2023-02-19T08:00:34.808Z,10.65
2023-02-19T08:01:34.930Z,10.71
2023-02-19T08:02:34.562Z,10.69
2023-02-19T08:03:37.684Z,10.75
2023-02-19T08:04:34.706Z,10.72
2023-02-19T08:05:34.829Z,10.72
2023-02-19T08:06:34.752Z,10.75
2023-02-19T08:07:34.735Z,10.79
2023-02-19T08:08:34.821Z,10.82
2023-02-19T08:09:34.572Z,10.65
2023-02-19T08:10:34.591Z,10.79
2023-02-19T08:11:34.782Z,10.76
2023-02-19T08:12:34.785Z,10.67
2023-02-19T08:13:34.812Z,10.75
2023-02-19T08:14:37.420Z,10.82
2023-02-19T08:15:34.849Z,10.82
2023-02-19T08:16:47.710Z,10.87
2023-02-19T08:17:34.787Z,10.75
2023-02-19T08:18:34.819Z,10.92
2023-02-19T08:19:34.868Z,10.95
2023-02-19T08:20:34.777Z,10.94
2023-02-19T08:21:36.686Z,10.9
2023-02-19T08:22:35.091Z,10.89
2023-02-19T08:23:34.914Z,10.86
2023-02-19T08:24:34.815Z,10.79
2023-02-19T08:25:37.521Z,10.79
2023-02-19T08:26:34.739Z,10.89
2023-02-19T08:27:34.779Z,10.86
2023-02-19T08:28:34.770Z,10.9
2023-02-19T08:29:34.764Z,10.87
2023-02-19T08:30:35.200Z,10.86
2023-02-19T08:31:35.278Z,10.98
2023-02-19T08:32:34.791Z,10.95
2023-02-19T08:33:34.780Z,10.95
2023-02-19T08:34:34.791Z,10.95
2023-02-19T08:35:34.783Z,10.89
2023-02-19T08:36:37.604Z,11.04
2023-02-19T08:37:34.800Z,10.94
2023-02-19T08:38:34.795Z,11
2023-02-19T08:39:34.774Z,11.07
2023-02-19T08:40:34.775Z,11.02
2023-02-19T08:41:34.802Z,11.04
2023-02-19T08:42:34.795Z,10.97
2023-02-19T08:43:34.816Z,11
2023-02-19T08:44:34.797Z,10.95
2023-02-19T08:45:34.792Z,11.05
2023-02-19T08:46:36.751Z,11.07
2023-02-19T08:47:34.805Z,11.13
2023-02-19T08:48:34.797Z,11.05
2023-02-19T08:49:34.783Z,11
2023-02-19T08:50:34.883Z,11.02
2023-02-19T08:51:34.817Z,11.01
2023-02-19T08:52:34.802Z,11.1
2023-02-19T08:53:34.818Z,11.01
2023-02-19T08:54:36.224Z,11.1
2023-02-19T08:55:35.197Z,11.04
2023-02-19T08:56:34.973Z,11.16
2023-02-19T08:57:34.827Z,11.04
2023-02-19T08:58:34.797Z,11.07
2023-02-19T08:59:34.814Z,11.07
2023-02-19T09:00:34.831Z,10.97
2023-02-19T09:01:35.037Z,11.07
2023-02-19T09:02:34.879Z,11.08
2023-02-19T09:03:34.877Z,11.08
2023-02-19T09:04:35.032Z,11.1
2023-02-19T09:05:34.874Z,11.19
2023-02-19T09:06:35.005Z,11.13
2023-02-19T09:07:34.837Z,11.26
2023-02-19T09:08:34.853Z,11.3
2023-02-19T09:09:34.812Z,11.44
2023-02-19T09:10:34.816Z,11.45
2023-02-19T09:11:34.831Z,11.41
2023-02-19T09:12:34.882Z,11.53
2023-02-19T09:13:34.852Z,11.58
2023-02-19T09:14:34.848Z,11.56
2023-02-19T09:15:34.968Z,11.56
2023-02-19T09:16:34.670Z,11.63
2023-02-19T09:17:34.869Z,11.68
2023-02-19T09:18:34.871Z,11.62
2023-02-19T09:19:38.113Z,11.59
2023-02-19T09:20:34.842Z,11.58
2023-02-19T09:21:34.841Z,11.49
2023-02-19T09:22:34.870Z,11.48
2023-02-19T09:23:34.875Z,11.45
2023-02-19T09:24:34.847Z,11.49
2023-02-19T09:25:34.845Z,11.53
2023-02-19T09:26:36.022Z,11.49
2023-02-19T09:27:34.871Z,11.52
2023-02-19T09:28:34.870Z,11.43
2023-02-19T09:29:34.861Z,11.52
2023-02-19T09:30:38.263Z,11.52
2023-02-19T09:31:35.330Z,11.51
2023-02-19T09:32:34.897Z,11.48
2023-02-19T09:33:34.872Z,11.44
2023-02-19T09:34:35.104Z,11.44
2023-02-19T09:35:34.969Z,11.52
2023-02-19T09:36:34.880Z,11.38
2023-02-19T09:37:37.146Z,11.52
2023-02-19T09:38:34.888Z,11.59
2023-02-19T09:39:34.869Z,11.63
2023-02-19T09:40:34.875Z,11.6
2023-02-19T09:41:37.457Z,11.55
2023-02-19T09:42:34.902Z,11.6
2023-02-19T09:43:34.890Z,11.58
2023-02-19T09:44:34.939Z,11.41
2023-02-19T09:45:34.893Z,11.34
2023-02-19T09:46:37.766Z,11.44
2023-02-19T09:47:34.927Z,11.53
2023-02-19T09:48:34.920Z,11.51
2023-02-19T09:49:34.969Z,11.48
2023-02-19T09:50:34.920Z,11.44
2023-02-19T09:51:34.918Z,11.53
2023-02-19T09:52:37.818Z,11.49
2023-02-19T09:53:34.898Z,11.56
2023-02-19T09:54:35.124Z,11.55
2023-02-19T09:55:34.901Z,11.58
2023-02-19T09:56:34.798Z,11.58
2023-02-19T09:57:36.648Z,11.49
2023-02-19T09:58:34.913Z,11.44
2023-02-19T09:59:34.913Z,11.4
2023-02-19T10:00:34.902Z,11.31
2023-02-19T10:01:35.032Z,11.41
2023-02-19T10:02:34.786Z,11.35
2023-02-19T10:03:37.784Z,11.31
2023-02-19T10:04:34.939Z,11.25
2023-02-19T10:05:34.938Z,11.37
2023-02-19T10:06:34.918Z,11.23
2023-02-19T10:07:34.953Z,11.27
2023-02-19T10:08:37.945Z,11.31
2023-02-19T10:09:34.923Z,11.35
2023-02-19T10:10:34.934Z,11.31
2023-02-19T10:11:34.959Z,11.3
2023-02-19T10:12:34.960Z,11.3
2023-02-19T10:13:34.929Z,11.26
2023-02-19T10:14:37.673Z,11.27
2023-02-19T10:15:35.023Z,11.41
2023-02-19T10:16:34.934Z,11.35
2023-02-19T10:17:34.948Z,11.52
2023-02-19T10:18:34.933Z,11.4
2023-02-19T10:19:37.986Z,11.45
2023-02-19T10:20:34.957Z,11.43
2023-02-19T10:21:34.952Z,11.45
2023-02-19T10:22:36.010Z,11.34
2023-02-19T10:23:34.958Z,11.52
2023-02-19T10:24:36.944Z,11.45
2023-02-19T10:25:34.931Z,11.53
2023-02-19T10:26:34.933Z,11.49
2023-02-19T10:27:35.002Z,11.49
2023-02-19T10:28:35.162Z,11.6
2023-02-19T10:29:34.961Z,11.58
2023-02-19T10:30:38.963Z,11.51
2023-02-19T10:31:35.497Z,11.63
2023-02-19T10:32:34.973Z,11.59
2023-02-19T10:33:34.968Z,11.58
2023-02-19T10:34:34.975Z,11.58
2023-02-19T10:35:38.307Z,11.43
2023-02-19T10:36:39.976Z,11.52
2023-02-19T10:37:34.999Z,11.45
2023-02-19T10:38:35.057Z,11.48
2023-02-19T10:39:35.727Z,11.48
2023-02-19T10:40:35.025Z,11.37
2023-02-19T10:41:38.213Z,11.37
2023-02-19T10:42:35.020Z,11.34
2023-02-19T10:43:34.993Z,11.43
2023-02-19T10:44:35.010Z,11.34
2023-02-19T10:45:35.099Z,11.31
2023-02-19T10:46:35.181Z,11.4
2023-02-19T10:47:35.161Z,11.31
2023-02-19T10:48:35.173Z,11.2
2023-02-19T10:49:35.948Z,11.23
2023-02-19T10:50:35.051Z,11.34
2023-02-19T10:51:35.025Z,11.13
2023-02-19T10:52:36.463Z,11.26
2023-02-19T10:53:35.130Z,11.3
2023-02-19T10:54:35.075Z,11.26
2023-02-19T10:55:37.569Z,11.33
2023-02-19T10:56:35.414Z,11.41
2023-02-19T10:57:35.403Z,11.23
2023-02-19T10:58:34.990Z,11.33
2023-02-19T10:59:35.017Z,11.22
2023-02-19T11:00:35.259Z,11.18
2023-02-19T11:01:35.147Z,11.19
2023-02-19T11:02:35.045Z,11.26
2023-02-19T11:03:38.054Z,11.35
2023-02-19T11:04:35.224Z,11.31
2023-02-19T11:05:35.027Z,11.31
2023-02-19T11:06:37.265Z,11.25
2023-02-19T11:07:35.080Z,11.16
2023-02-19T11:08:35.026Z,11.16
2023-02-19T11:09:35.024Z,11.05
2023-02-19T11:10:35.014Z,11.1
2023-02-19T11:11:35.340Z,10.9
2023-02-19T11:12:35.150Z,11
2023-02-19T11:13:35.039Z,11.04
2023-02-19T11:14:35.099Z,11
2023-02-19T11:15:35.074Z,10.92
2023-02-19T11:16:35.688Z,10.94
2023-02-19T11:17:35.043Z,10.94
2023-02-19T11:18:35.248Z,10.9
2023-02-19T11:19:35.032Z,10.89
2023-02-19T11:20:35.043Z,11
2023-02-19T11:21:34.946Z,11.01
2023-02-19T11:22:35.118Z,10.95
2023-02-19T11:23:35.062Z,10.97
2023-02-19T11:24:35.136Z,10.89
2023-02-19T11:25:35.039Z,11.1
2023-02-19T11:26:35.069Z,10.94
2023-02-19T11:27:35.227Z,10.9
2023-02-19T11:28:35.094Z,11.04
2023-02-19T11:29:35.047Z,11.12
2023-02-19T11:30:41.183Z,11.05
2023-02-19T11:31:35.563Z,11.07
2023-02-19T11:32:35.108Z,11.15
2023-02-19T11:33:35.169Z,11.2
2023-02-19T11:34:35.316Z,11.25
2023-02-19T11:35:35.077Z,11.1
2023-02-19T11:36:35.658Z,11.04
2023-02-19T11:37:35.075Z,11.1
2023-02-19T11:38:35.065Z,11.27
2023-02-19T11:39:35.057Z,11.18
2023-02-19T11:40:35.214Z,11.22
2023-02-19T11:41:35.065Z,11.19
2023-02-19T11:42:35.406Z,11.05
2023-02-19T11:43:35.117Z,11.12
2023-02-19T11:44:35.272Z,11.16
2023-02-19T11:45:35.110Z,10.98
2023-02-19T11:46:38.349Z,11.1
2023-02-19T11:47:35.204Z,11.04
2023-02-19T11:48:36.090Z,11.05
2023-02-19T11:49:35.091Z,11.12
2023-02-19T11:50:35.110Z,11.02
2023-02-19T11:51:35.088Z,11.08
2023-02-19T11:52:35.301Z,11.16
2023-02-19T11:53:35.120Z,11.07
2023-02-19T11:54:35.096Z,11.1
2023-02-19T11:55:35.124Z,11.13
2023-02-19T11:56:35.218Z,11.07
2023-02-19T11:57:38.277Z,11.18
2023-02-19T11:58:35.189Z,11.12
2023-02-19T11:59:35.391Z,11.13
2023-02-19T12:00:35.130Z,11.19
2023-02-19T12:01:35.258Z,11.16
2023-02-19T12:02:35.268Z,11.18
2023-02-19T12:03:35.300Z,11.15
2023-02-19T12:04:37.459Z,11.27
2023-02-19T12:05:35.428Z,11.33
2023-02-19T12:06:35.129Z,11.25
2023-02-19T12:07:35.160Z,11.33
2023-02-19T12:08:37.957Z,11.35
2023-02-19T12:09:35.117Z,11.45
2023-02-19T12:10:35.139Z,11.51
2023-02-19T12:11:35.152Z,11.44
2023-02-19T12:12:37.686Z,11.63
2023-02-19T12:13:37.955Z,11.81
2023-02-19T12:14:35.163Z,11.85
2023-02-19T12:15:35.133Z,11.81
2023-02-19T12:16:35.463Z,11.78
2023-02-19T12:17:35.142Z,11.71
2023-02-19T12:18:36.925Z,11.71
2023-02-19T12:19:38.022Z,11.68
2023-02-19T12:20:36.714Z,11.73
2023-02-19T12:21:35.113Z,11.58
2023-02-19T12:22:35.166Z,11.65
2023-02-19T12:23:35.934Z,11.55
2023-02-19T12:24:38.197Z,11.53
2023-02-19T12:25:37.366Z,11.56
2023-02-19T12:26:35.134Z,11.41
2023-02-19T12:27:38.729Z,11.43
2023-02-19T12:28:35.509Z,11.48
2023-02-19T12:29:35.210Z,11.56
2023-02-19T12:30:38.236Z,11.4
2023-02-19T12:31:37.786Z,11.45
2023-02-19T12:32:35.205Z,11.44
2023-02-19T12:33:35.143Z,11.41
2023-02-19T12:34:35.154Z,11.45
2023-02-19T12:35:37.925Z,11.26
2023-02-19T12:36:35.181Z,11.27
2023-02-19T12:37:35.175Z,11.37
2023-02-19T12:38:35.251Z,11.27
2023-02-19T12:39:35.324Z,11.3
2023-02-19T12:40:35.190Z,11.22
2023-02-19T12:41:35.152Z,11.23
2023-02-19T12:42:35.325Z,11.44
2023-02-19T12:43:35.174Z,11.41
2023-02-19T12:44:35.178Z,11.49
2023-02-19T12:45:35.739Z,11.3
2023-02-19T12:46:38.264Z,11.25
2023-02-19T12:47:35.201Z,11.2
2023-02-19T12:48:35.185Z,11.25
2023-02-19T12:49:35.161Z,11.3
2023-02-19T12:50:35.203Z,11.26
2023-02-19T12:51:35.201Z,11.33
2023-02-19T12:52:35.209Z,11.31
2023-02-19T12:53:35.176Z,11.35
2023-02-19T12:54:35.217Z,11.31
2023-02-19T12:55:35.194Z,11.33
2023-02-19T12:56:35.196Z,11.4